Airway Heights, WA (99001)

4:31 AM PDT on March 29, 2015 (GMT -0700)
Hayford | | Change Station
CLOSE
Current Station
Personal Weather Station
Location: Cheney, WA
Elevation: 2441 ft
Nearby Weather Stations

Elev 2441 ft 47.58 °N, 117.54 °W | Updated 4 minutes ago

Mostly Cloudy
Mostly Cloudy
37.2 °F
Feels Like 37 °F
N
2.7
Wind Variable Wind from ESE

Today
High -- | Low -- °F
--% Chance of Precip.
Yesterday
High -- | Low -- °F
Precip. -- in
6:35 AM 7:15 PM
Waxing Gibbous, 71% visible
Pressure 30.27 in
Visibility 10.0 miles
Clouds Few 11000 ft
Mostly Cloudy 18000 ft
Overcast 22000 ft
Windchill 37 °F
Dew Point 34 °F
Humidity 88%
Rainfall 0.00 in
Snow Depth Not available.
UV 0 out of 12
Pollen 8.40 out of 12
Air Quality Not available.
Flu Activity Not available.
METAR KGEG 291053Z 16006KT 10SM FEW110 BKN180 OVC220 06/02 A3026 RMK AO2 SLP251 T00560017

More Conditions Fewer Conditions

Pressure 30.27 in
Visibility 10.0 miles
Clouds Few 11000 ft
Mostly Cloudy 18000 ft
Overcast 22000 ft
Windchill 37 °F
Dew Point 34 °F
Humidity 88%
Rainfall 0.00 in
Snow Depth Not available.
UV 0 out of 12
Pollen 8.40 out of 12
Air Quality Not available.
Flu Activity Not available.
METAR KGEG 291053Z 16006KT 10SM FEW110 BKN180 OVC220 06/02 A3026 RMK AO2 SLP251 T00560017

More Conditions Fewer Conditions

10-Day Weather Forecast

Almanac

Astronomy

Mar. 29, 2015 Rise Set
Actual Time
Civil Twilight
Nautical Twilight
Astronomical Twilight
Moon
Length of Visible Light
Length of Day
Tomorrow will be .
, % of the Moon is Illuminated

Today's Extremes

State Highs State Lows

Community

WunderPhotos

Upload Photos

1,809,214 photos uploaded!

WunderBlogs® & News

Nearby

Air Quality

  Air Quality AQ Index Pollutant
Not available.

Snow Depth

Station Depth Elevation

Earthquake Activity

City Distance Mag. Time & Date
Minimum magnitude displayed is 2.5.

Coastal Water Temperatures

Place Temperature

Stations

Nearby Weather Stations

Station Location Temp. Windchill Dew Point Humidity Wind Precip. Elev Updated Type